Date,TemperatureHighF,TemperatureAvgF,TemperatureLowF,DewpointHighF,DewpointAvgF,DewpointLowF,HumidityHigh,HumidityAvg,HumidityLow,PressureMaxIn,PressureMinIn,WindSpeedMaxMPH,WindSpeedAvgMPH,GustSpeedMaxMPH,PrecipitationSumIn
2013-1-1,19.1,6.3,-14.3,15.0,2.1,-19.0,87,82,76,30.47,30.09,7,2,9,0.00
2013-1-2,28.1,16.1,2.0,24.0,11.3,-3.0,89,81,75,30.42,30.00,13,2,15,0.00
2013-1-3,21.5,11.0,-2.4,15.0,5.9,-7.0,83,80,75,30.47,30.12,8,3,13,0.00
2013-1-4,24.8,16.2,4.1,17.0,10.7,0.0,88,78,70,30.26,30.13,5,1,7,0.00
2013-1-5,15.0,6.9,-2.3,10.0,2.3,-7.0,86,81,71,30.32,30.10,11,1,15,0.00
2013-1-6,16.5,11.9,1.4,11.0,7.6,-2.0,86,82,75,30.36,29.94,7,2,12,0.00
2013-1-7,33.0,23.8,12.1,24.0,17.6,9.0,89,78,67,30.06,29.89,7,3,12,0.00
2013-1-8,33.0,23.6,7.7,26.0,18.6,4.0,89,81,70,30.04,29.79,11,2,17,0.00
2013-1-9,31.9,24.2,19.0,24.0,17.8,13.0,80,76,71,30.38,29.93,13,4,20,0.00
2013-1-10,41.6,34.4,25.9,31.0,26.7,21.0,90,74,55,30.17,29.68,13,5,19,0.21
2013-1-11,33.0,23.7,10.2,31.0,21.3,7.0,93,90,86,29.68,29.57,11,3,19,0.03
2013-1-12,9.9,2.3,-2.8,6.0,-2.5,-8.0,85,80,75,30.38,29.65,16,6,23,0.00
2013-1-13,6.8,0.5,-6.4,0.0,-5.4,-12.0,81,76,71,30.46,30.34,6,1,9,0.00
2013-1-14,11.0,3.0,-4.9,3.0,-2.5,-10.0,85,78,69,30.55,30.39,4,1,9,0.00
2013-1-15,25.9,11.8,-2.2,23.0,6.3,-6.0,88,78,68,30.39,29.73,12,4,15,0.00
2013-1-16,34.9,11.1,-5.2,31.0,4.0,-14.0,90,73,57,30.50,29.70,9,3,19,0.00
2013-1-17,10.5,5.9,-3.1,6.0,-1.2,-12.0,83,73,63,30.62,30.32,7,1,11,0.00
2013-1-18,25.3,19.7,10.6,20.0,15.2,6.0,86,82,78,30.31,29.83,8,2,14,0.00
2013-1-19,34.6,11.3,-4.7,29.0,6.0,-11.0,88,79,72,30.54,29.81,17,6,28,0.00
2013-1-20,1.5,-4.2,-12.5,-6.0,-11.7,-20.0,79,70,63,30.61,30.54,10,4,18,0.00
2013-1-21,-5.5,-12.0,-15.8,-14.0,-19.5,-23.0,76,69,63,30.60,30.53,8,2,12,0.00
2013-1-22,6.9,-4.9,-17.2,2.0,-11.7,-23.0,79,73,67,30.58,30.38,4,1,7,0.00
2013-1-23,6.9,-4.6,-15.4,2.0,-11.4,-23.0,84,72,62,30.90,30.35,12,3,18,0.00
2013-1-24,10.9,-3.1,-15.4,4.0,-10.5,-23.0,79,70,67,30.90,30.19,9,3,16,0.00
2013-1-25,13.3,1.5,-8.5,7.0,-5.2,-13.0,80,74,69,30.53,30.12,14,4,21,0.00
2013-1-26,16.5,6.2,-8.3,9.0,-0.1,-13.0,81,75,68,30.53,30.20,7,2,14,0.00
2013-1-27,30.3,18.8,5.8,24.0,13.8,1.0,90,81,75,30.20,29.94,3,0,4,0.00
2013-1-28,28.5,26.0,23.5,27.0,23.8,21.0,92,91,89,29.97,29.86,2,0,5,0.00
2013-1-29,25.3,20.6,13.9,21.0,16.9,9.0,90,85,80,30.11,29.81,0,0,0,0.00
2013-1-30,13.8,5.3,-7.9,9.0,0.0,-14.0,83,79,75,30.13,30.03,8,1,17,0.00
2013-1-31,-6.8,-10.2,-17.1,-14.0,-16.7,-24.0,79,73,67,30.55,30.14,14,3,17,0.00
2013-2-1,-0.4,-10.4,-20.9,-5.0,-16.2,-27.0,81,75,69,30.52,30.27,3,0,7,0.00
2013-2-2,8.0,-1.8,-13.5,3.0,-6.9,-19.0,82,79,72,30.42,30.18,8,1,12,0.00
2013-2-3,6.7,3.6,-1.2,0.0,-2.4,-6.0,83,76,65,30.31,30.21,6,1,6,0.00
2013-2-4,18.5,6.3,-4.0,15.0,0.1,-9.0,88,76,59,30.27,29.77,9,2,17,0.00
2013-2-5,26.4,11.5,5.3,23.0,6.3,0.0,88,79,74,30.24,29.78,8,2,16,0.00
2013-2-6,29.2,18.8,8.1,22.0,13.8,3.0,84,81,73,30.26,30.03,7,2,8,0.01
2013-2-7,18.1,12.7,6.9,14.0,8.7,3.0,87,84,80,30.50,30.26,6,2,9,0.00
2013-2-8,23.5,18.5,10.7,19.0,14.4,7.0,89,84,76,30.49,30.18,14,2,14,0.00
2013-2-9,31.2,27.0,21.1,27.0,23.4,17.0,91,86,79,30.17,30.00,9,2,14,0.00
2013-2-10,28.2,26.9,23.6,26.0,25.0,21.0,92,92,89,29.99,29.66,16,6,19,0.00
2013-2-11,23.2,19.2,14.0,21.0,15.8,10.0,90,86,81,30.15,29.83,14,5,21,0.00
2013-2-12,28.7,20.6,10.8,24.0,16.0,7.0,87,82,76,30.08,29.90,6,2,9,0.00
2013-2-13,32.5,23.9,16.2,27.0,20.2,13.0,90,85,75,29.92,29.74,7,1,8,0.00
2013-2-14,17.6,11.4,4.4,14.0,6.5,-1.0,89,80,74,30.45,29.93,7,2,17,0.00
2013-2-15,12.2,4.0,-2.6,5.0,-0.7,-7.0,85,81,69,30.59,30.43,3,1,5,0.00
2013-2-16,15.2,7.3,-8.1,11.0,2.6,-12.0,86,81,74,30.43,30.15,6,2,12,0.00
2013-2-17,29.7,22.7,12.5,26.0,18.4,8.0,87,83,78,30.14,29.63,12,4,17,0.00
2013-2-18,28.8,9.3,-2.6,26.0,5.4,-7.0,90,84,80,30.31,29.63,18,7,31,0.00
2013-2-19,-2.7,-8.9,-15.8,-7.0,-14.1,-21.0,81,78,75,30.73,30.32,11,4,23,0.00
2013-2-20,1.8,-9.2,-20.0,-5.0,-14.8,-25.0,81,76,71,30.74,30.59,2,0,4,0.00
2013-2-21,18.2,4.4,-9.6,9.0,-2.0,-14.0,82,75,66,30.64,30.36,4,0,5,0.00
2013-2-22,17.6,12.6,7.9,13.0,7.5,3.0,88,80,73,30.36,30.09,8,1,10,0.00
2013-2-23,22.7,13.4,2.4,17.0,9.8,-1.0,89,85,73,30.13,30.03,2,0,3,0.00
2013-2-24,23.0,11.5,-2.2,16.0,6.4,-6.0,88,80,68,30.23,30.13,4,1,10,0.00
2013-2-25,27.9,19.1,8.7,20.0,14.9,5.0,90,84,71,30.25,30.16,7,2,11,0.00
2013-2-26,24.4,18.6,11.2,21.0,15.6,8.0,89,88,84,30.25,30.17,4,1,7,0.00
2013-2-27,27.7,16.4,5.5,23.0,12.9,2.0,89,86,81,30.36,30.25,12,2,15,0.00
2013-2-28,26.6,21.7,16.4,20.0,16.7,12.0,87,81,73,30.46,30.36,6,2,11,0.01
2013-3-1,23.8,14.3,6.2,16.0,9.5,3.0,87,81,69,30.59,30.46,5,1,6,0.00
2013-3-2,24.8,14.0,0.3,16.0,7.6,-4.0,86,76,62,30.53,30.24,5,1,9,0.00
2013-3-3,30.7,22.8,8.9,23.0,15.3,5.0,86,73,62,30.24,29.99,11,3,13,0.00
2013-3-4,26.3,24.5,23.2,23.0,21.0,17.0,90,86,69,30.14,29.97,9,6,14,0.00
2013-3-5,24.0,21.7,18.0,21.0,18.1,14.0,90,85,78,30.56,30.15,9,3,13,0.00
2013-3-6,24.9,17.3,7.1,16.0,12.3,4.0,88,81,66,30.61,30.47,6,1,8,0.00
2013-3-7,29.7,18.4,2.3,20.0,12.7,-1.0,87,78,61,30.49,30.33,8,2,13,0.00
2013-3-8,34.1,25.9,21.9,25.0,20.7,18.0,87,81,66,30.39,30.19,5,2,10,0.00
2013-3-9,28.4,26.7,24.4,26.0,23.4,20.0,92,87,81,30.18,29.95,9,2,14,0.00
2013-3-10,23.6,18.2,6.3,18.0,12.9,1.0,84,80,73,30.34,30.15,10,4,18,0.00
2013-3-11,23.2,12.7,1.5,15.0,6.6,-3.0,86,77,59,30.27,30.00,3,1,5,0.00
2013-3-12,23.9,17.8,8.9,17.0,13.1,4.0,87,82,74,30.48,30.05,13,4,22,0.00
2013-3-13,22.7,11.1,-3.9,19.0,5.1,-8.0,87,77,64,30.57,30.26,7,1,8,0.00
2013-3-14,34.9,25.8,19.7,26.0,20.7,17.0,89,81,70,30.27,30.19,8,2,11,0.10
2013-3-15,21.5,17.8,9.1,18.0,14.2,6.0,88,86,81,30.27,30.09,11,4,13,0.00
2013-3-16,8.5,1.3,-6.2,4.0,-3.8,-11.0,84,79,73,30.52,30.27,6,2,10,0.00
2013-3-17,22.7,6.2,-13.9,20.0,1.0,-19.0,89,79,72,30.51,29.79,12,4,15,0.00
2013-3-18,29.3,16.4,5.5,27.0,12.3,-1.0,91,84,75,30.15,29.59,21,7,28,0.00
2013-3-19,14.4,5.0,-5.0,3.0,-3.6,-11.0,76,68,54,30.52,30.14,10,4,15,0.00
2013-3-20,15.9,5.9,-3.9,5.0,-2.1,-9.0,78,70,58,30.55,30.39,11,3,13,0.00
2013-3-21,15.4,3.7,-8.6,8.0,-2.2,-13.0,84,77,67,30.38,30.30,4,1,7,0.00
2013-3-22,17.7,6.7,-5.7,11.0,1.5,-10.0,84,79,70,30.34,30.28,5,1,6,0.00
2013-3-23,26.5,16.9,7.5,19.0,11.0,4.0,86,78,69,30.38,30.33,5,1,10,0.00
2013-3-24,29.3,21.7,13.2,23.0,17.1,10.0,88,82,73,30.37,30.31,8,2,15,0.04
2013-3-25,26.7,21.6,12.9,20.0,16.3,8.0,85,80,72,30.51,30.38,11,2,15,0.00
2013-3-26,24.1,13.8,2.9,16.0,8.4,-2.0,87,79,67,30.54,30.47,4,1,5,0.00
2013-3-27,35.9,15.3,-3.7,25.0,9.3,-8.0,88,78,62,30.52,30.45,3,0,6,0.00
2013-3-28,40.9,30.0,17.5,29.0,23.3,13.0,90,77,63,30.46,30.37,8,1,9,0.00
2013-3-29,38.5,24.8,11.6,32.0,22.1,9.0,92,89,78,30.38,30.14,4,1,5,0.01
2013-3-30,39.2,33.7,28.5,32.0,29.7,27.0,93,85,74,30.13,30.02,7,2,10,0.02
2013-3-31,34.4,25.8,15.5,30.0,19.1,9.0,87,76,62,30.38,29.99,16,5,20,0.00
2013-4-1,28.7,19.5,10.2,17.0,11.6,5.0,84,72,58,30.51,30.38,6,2,10,0.00
2013-4-2,29.8,20.4,11.4,19.0,13.9,8.0,89,77,58,30.54,30.43,4,1,4,0.00
2013-4-3,41.0,29.9,15.3,34.0,23.0,12.0,88,76,65,30.50,30.06,11,3,20,0.00
2013-4-4,33.9,29.9,19.7,27.0,22.8,16.0,84,75,65,30.42,30.16,8,4,16,0.00
2013-4-5,32.9,25.2,12.8,28.0,20.3,10.0,89,82,66,30.42,29.93,9,3,14,0.00
2013-4-6,37.8,33.1,30.4,33.0,29.5,26.0,91,86,81,29.99,29.80,7,2,11,0.29
2013-4-7,38.7,33.1,31.0,31.0,29.1,27.0,92,85,71,30.04,29.92,4,1,9,0.27
2013-4-8,32.3,28.1,18.7,30.0,24.2,10.0,93,85,70,30.42,29.92,13,6,18,0.04
2013-4-9,27.2,20.1,13.6,18.0,12.5,6.0,77,72,66,30.54,30.41,11,5,15,0.00
2013-4-10,33.6,27.4,19.3,26.0,20.9,14.0,81,77,69,30.52,30.18,11,4,13,0.02
2013-4-11,32.7,29.6,26.9,26.0,25.1,22.0,91,83,67,30.18,29.98,15,5,16,0.01
2013-4-12,33.0,28.5,26.1,28.0,24.9,23.0,91,86,78,30.05,29.98,9,3,11,0.01
2013-4-13,32.2,28.2,23.5,25.0,22.8,19.0,91,80,64,30.07,30.01,5,2,9,0.01
2013-4-14,32.9,29.3,21.7,30.0,24.6,18.0,93,83,67,30.06,29.62,17,7,21,0.00
2013-4-15,35.4,32.1,30.0,33.0,29.6,28.0,93,90,84,30.12,29.52,13,4,15,0.27
2013-4-16,37.1,30.5,23.2,30.0,25.7,20.0,89,83,70,30.51,30.13,5,2,11,0.00
2013-4-17,34.9,31.3,27.7,31.0,28.4,25.0,92,89,83,30.54,30.27,5,2,9,0.17
2013-4-18,36.5,31.5,28.2,31.0,26.9,23.0,92,83,70,30.26,29.98,13,4,22,0.07
2013-4-19,33.9,29.0,24.2,24.0,21.2,18.0,81,73,61,30.22,29.94,17,5,22,0.00
2013-4-20,37.6,28.4,18.8,24.0,17.5,11.0,81,66,35,30.38,30.23,9,2,11,0.00
2013-4-21,40.4,34.5,29.9,35.0,29.6,24.0,89,82,74,30.32,30.10,10,4,14,0.06
2013-4-22,34.1,30.4,26.6,26.0,23.8,21.0,84,77,67,30.49,30.31,9,3,12,0.00
2013-4-23,40.3,30.8,22.1,27.0,21.9,17.0,83,71,53,30.47,30.15,7,2,9,0.00
2013-4-24,43.1,32.9,25.0,34.0,27.6,23.0,91,81,59,30.18,30.02,19,3,25,0.03
2013-4-25,45.3,36.0,26.7,36.0,27.6,22.0,85,72,49,30.27,30.04,10,2,15,0.00
2013-4-26,65.4,48.8,31.3,44.0,36.9,29.0,90,67,37,30.18,30.00,5,1,9,0.00
2013-4-27,73.1,57.3,41.6,51.0,41.7,33.0,78,58,39,30.16,29.81,12,4,17,0.00
2013-4-28,60.4,52.3,41.6,46.0,39.7,28.0,81,63,36,29.97,29.70,12,3,18,0.00
2013-4-29,67.4,49.7,31.1,45.0,34.7,27.0,87,60,31,29.99,29.50,8,2,11,0.00
2013-4-30,56.4,49.2,35.0,46.0,36.4,23.0,90,63,43,30.19,29.41,15,6,22,0.05
2013-5-1,41.3,34.9,29.1,26.0,22.8,19.0,78,62,53,30.73,30.18,13,4,19,0.00
2013-5-2,38.6,31.7,24.3,25.0,23.7,22.0,89,73,58,30.85,30.69,10,2,14,0.00
2013-5-3,50.6,37.4,23.1,27.0,23.9,20.0,90,62,39,30.69,30.38,11,3,16,0.00
2013-5-4,50.2,42.7,37.7,39.0,30.9,24.0,88,64,50,30.40,30.34,12,4,16,0.08
2013-5-5,50.7,43.6,37.6,43.0,38.7,35.0,91,83,72,30.37,30.25,7,2,9,0.14
2013-5-6,67.5,55.5,44.4,47.0,43.8,41.0,88,67,44,30.25,30.11,4,1,6,0.00
2013-5-7,77.5,62.8,44.8,48.0,43.7,39.0,92,55,26,30.12,29.95,8,2,14,0.00
2013-5-8,74.0,59.4,46.7,47.0,42.9,34.0,79,57,33,30.17,29.99,8,2,14,0.00
2013-5-9,66.5,52.6,38.0,34.0,27.2,17.0,70,42,15,30.27,30.17,14,5,24,0.00
2013-5-10,69.8,51.7,37.0,37.0,29.8,20.0,85,46,26,30.27,29.97,16,4,24,0.00
2013-5-11,51.4,42.9,34.0,29.0,20.2,12.0,73,44,21,30.41,30.23,18,5,26,0.00
2013-5-12,63.5,46.9,28.1,22.0,15.5,8.0,62,33,12,30.39,30.12,6,1,10,0.00
2013-5-13,90.6,66.4,48.8,42.0,28.7,20.0,35,26,11,30.12,29.65,16,4,26,0.00
2013-5-14,84.0,68.4,55.2,55.0,42.0,31.0,80,41,19,29.85,29.54,21,5,28,0.10
2013-5-15,82.4,65.3,49.1,44.0,35.8,27.0,67,40,13,29.93,29.83,11,2,19,0.00
2013-5-16,78.2,61.5,49.3,51.0,40.1,33.0,77,49,20,30.02,29.92,12,3,18,0.01
2013-5-17,74.4,65.2,53.2,53.0,45.3,34.0,72,50,31,30.00,29.93,9,4,10,0.00
2013-5-18,83.7,68.3,56.9,64.0,58.0,52.0,92,72,38,29.94,29.79,7,2,13,0.53
2013-5-19,76.7,65.3,56.6,67.0,59.6,54.0,93,83,55,29.80,29.62,10,4,14,1.40
2013-5-20,63.5,57.7,55.0,60.0,55.2,52.0,93,91,83,29.65,29.52,9,4,12,0.80
2013-5-21,54.9,49.7,46.9,52.0,46.1,43.0,92,87,82,29.96,29.64,15,7,20,0.28
2013-5-22,71.3,57.9,46.5,50.0,42.4,31.0,87,62,23,30.16,29.96,16,6,22,0.01
2013-5-23,68.8,58.7,45.7,44.0,32.9,22.0,73,42,17,30.40,30.19,8,3,13,0.00
2013-5-24,67.6,55.1,42.4,48.0,38.8,29.0,84,57,28,30.37,30.21,8,3,13,0.00
2013-5-25,71.1,60.8,52.9,52.0,49.5,48.0,84,67,50,30.25,30.16,8,4,16,0.00
2013-5-26,60.7,56.9,53.2,48.0,45.6,42.0,77,66,53,30.24,30.09,9,3,11,0.00
2013-5-27,70.1,60.7,54.0,56.0,50.4,45.0,81,70,55,30.11,29.86,5,1,6,0.00
2013-5-28,73.7,62.9,56.8,58.0,54.3,52.0,91,75,51,29.88,29.70,5,2,11,0.00
2013-5-29,72.9,62.4,54.9,61.0,57.1,52.0,93,83,65,29.77,29.66,6,2,9,2.98
2013-5-30,77.6,66.5,59.6,64.0,60.9,58.0,93,83,54,29.67,29.46,6,3,12,1.22
2013-5-31,63.5,61.0,58.8,59.0,56.3,53.0,92,84,74,29.65,29.39,7,2,7,0.14
2013-6-1,59.9,51.2,46.2,56.0,46.0,42.0,92,83,68,30.18,29.65,10,3,17,0.05
2013-6-2,64.2,53.4,40.9,44.0,40.0,33.0,91,64,33,30.23,30.11,4,1,8,0.00
2013-6-3,63.1,55.7,43.6,47.0,42.4,38.0,81,62,43,30.15,30.03,5,1,6,0.02
2013-6-4,58.9,55.4,51.0,54.0,50.5,45.0,91,83,71,30.09,29.99,7,3,8,0.31
2013-6-5,60.8,55.6,52.8,54.0,51.3,50.0,93,85,72,30.16,30.02,5,1,9,0.23
2013-6-6,68.5,59.2,51.1,50.0,47.4,43.0,88,67,42,30.18,30.10,4,1,10,0.00
2013-6-7,72.6,61.3,50.9,52.0,48.7,45.0,88,66,39,30.13,29.93,6,1,8,0.17
2013-6-8,76.3,64.5,51.9,55.0,51.3,48.0,90,65,42,29.95,29.88,5,2,9,0.01
2013-6-9,64.6,59.0,52.8,58.0,54.4,51.0,93,85,72,29.95,29.91,3,1,6,0.47
2013-6-10,73.9,62.7,48.8,60.0,55.3,47.0,94,78,58,29.93,29.84,4,0,7,0.00
2013-6-11,80.7,69.5,55.6,60.0,48.6,39.0,84,53,23,30.00,29.88,4,1,9,0.00
2013-6-12,73.8,66.6,59.2,55.0,51.1,47.0,76,58,42,30.13,29.92,6,1,15,0.00
2013-6-13,80.5,68.0,53.0,55.0,50.3,46.0,83,56,32,30.21,30.07,4,0,6,0.00
2013-6-14,82.8,72.7,63.3,62.0,56.6,52.0,72,58,42,30.08,29.81,9,1,13,0.00
2013-6-15,82.8,71.3,56.7,61.0,47.3,33.0,80,48,17,29.99,29.85,8,1,13,0.00
2013-6-16,84.8,72.2,56.3,51.0,45.2,38.0,71,42,19,29.95,29.86,11,2,19,0.00
2013-6-17,77.1,68.0,58.5,57.0,53.1,48.0,76,60,43,30.11,29.94,10,2,12,0.00
2013-6-18,82.0,69.3,54.8,57.0,51.0,46.0,88,56,30,30.18,30.01,2,0,4,0.00
2013-6-19,89.4,76.4,59.8,59.0,53.7,48.0,78,48,27,30.03,29.89,3,0,6,0.00
2013-6-20,82.6,71.8,62.0,68.0,62.2,55.0,92,73,51,29.99,29.84,6,2,19,1.39
2013-6-21,80.3,69.7,60.7,68.0,62.6,58.0,92,79,58,30.04,29.81,5,0,17,0.18
2013-6-22,84.0,72.6,64.3,67.0,63.7,62.0,92,75,49,29.97,29.83,4,1,6,0.01
2013-6-23,78.1,69.2,61.5,65.0,60.7,55.0,93,76,47,29.88,29.67,6,2,12,1.39
2013-6-24,85.9,72.9,61.2,65.0,59.5,51.0,88,65,30,29.89,29.80,4,1,5,0.00
2013-6-25,87.5,75.0,63.9,73.0,67.6,60.0,92,79,62,29.81,29.65,6,1,14,2.15
2013-6-26,85.6,73.3,62.3,69.0,63.4,59.0,93,73,42,29.84,29.61,8,1,15,1.74
2013-6-27,84.2,75.0,66.8,64.0,58.2,52.0,79,58,33,29.92,29.84,13,-9,16,0.00
2013-6-28,79.0,71.7,64.1,59.0,56.9,54.0,76,61,46,29.99,29.92,19,3,21,0.00
2013-6-29,80.4,70.4,60.6,61.0,57.8,53.0,89,67,39,30.10,29.98,7,2,10,0.00
2013-6-30,83.2,72.8,59.1,61.0,54.2,48.0,91,56,30,30.22,30.10,4,1,7,0.00
2013-7-1,86.8,74.0,60.5,60.0,53.2,43.0,80,53,24,30.30,30.20,3,0,5,0.00
2013-7-2,89.1,75.9,61.7,60.0,54.1,48.0,83,51,25,30.22,30.09,2,0,6,0.00
2013-7-3,88.6,76.7,61.8,61.0,55.9,52.0,82,52,30,30.09,29.91,3,0,5,0.00
2013-7-4,90.3,78.1,63.2,62.0,56.6,50.0,69,49,30,29.91,29.73,5,1,11,0.00
2013-7-5,89.5,79.6,67.5,68.0,62.9,59.0,85,59,38,29.80,29.74,3,0,7,0.00
2013-7-6,80.7,74.3,69.5,70.0,66.1,62.0,91,76,64,29.85,29.78,3,0,6,0.39
2013-7-7,81.7,74.3,66.8,69.0,61.7,53.0,93,68,38,30.01,29.84,4,1,11,0.00
2013-7-8,88.2,73.7,58.0,64.0,59.1,55.0,91,63,37,30.05,29.94,3,0,5,0.00
2013-7-9,75.4,70.4,60.7,67.0,61.5,53.0,92,74,56,30.10,29.81,9,2,16,0.15
2013-7-10,79.3,68.8,55.4,57.0,52.6,47.0,87,60,33,30.16,30.06,6,1,9,0.00
2013-7-11,86.7,73.8,58.4,65.0,59.1,52.0,81,62,44,30.09,29.85,8,2,12,0.00
2013-7-12,90.8,79.1,71.5,71.0,66.3,62.0,87,65,49,29.90,29.75,6,1,10,0.00
2013-7-13,87.6,76.6,66.5,72.0,68.6,65.0,94,78,54,30.02,29.90,3,1,7,0.00
2013-7-14,77.0,72.2,67.5,68.0,65.8,61.0,90,80,68,30.23,30.02,6,0,12,0.00
2013-7-15,73.4,70.0,64.9,70.0,66.6,63.0,93,89,81,30.24,30.10,2,0,7,0.13
2013-7-16,91.0,79.8,70.2,69.0,66.8,64.0,84,66,42,30.18,30.09,6,2,8,0.00
2013-7-17,91.9,77.1,63.3,72.0,66.6,60.0,89,72,50,30.24,30.07,4,0,6,0.00
2013-7-18,93.2,81.4,69.9,72.0,69.0,66.0,91,68,47,30.07,29.72,7,2,10,0.00
2013-7-19,83.6,71.7,64.0,67.0,60.0,57.0,90,68,41,29.96,29.77,7,1,13,0.30
2013-7-20,71.7,63.3,55.8,60.0,52.7,50.0,88,70,48,30.09,29.96,6,1,8,0.00
2013-7-21,82.7,68.8,51.7,65.0,57.4,48.0,88,68,50,30.05,29.69,5,1,8,0.00
2013-7-22,74.0,67.7,57.0,65.0,57.7,51.0,86,71,56,30.01,29.69,6,1,12,0.00
2013-7-23,74.5,62.0,50.5,57.0,51.6,47.0,89,71,47,30.13,30.02,4,1,7,0.00
2013-7-24,81.9,68.0,52.5,58.0,54.3,50.0,91,64,38,30.14,29.95,4,1,9,0.00
2013-7-25,80.5,68.5,57.6,61.0,54.4,46.0,88,64,36,30.05,29.96,12,2,16,0.00
2013-7-26,67.5,60.8,54.5,53.0,47.8,42.0,89,65,42,30.27,30.05,11,3,15,0.02
2013-7-27,69.3,60.0,46.5,48.0,44.1,40.0,85,59,36,30.28,30.11,12,2,14,0.00
2013-7-28,74.1,61.5,45.5,49.0,45.2,42.0,91,59,34,30.15,30.09,3,0,7,0.00
2013-7-29,76.7,63.5,47.8,57.0,50.9,44.0,90,66,41,30.13,30.07,5,1,10,0.12
2013-7-30,77.4,67.5,58.4,61.0,58.3,56.0,90,74,51,30.13,30.09,2,0,6,0.00
2013-7-31,75.1,66.1,56.7,57.0,51.4,46.0,90,62,37,30.16,30.09,7,1,14,0.00
2013-8-1,79.5,68.1,55.5,55.0,50.4,47.0,81,56,33,30.09,29.96,7,1,13,0.00
2013-8-2,74.4,64.6,52.6,55.0,49.4,44.0,86,61,35,30.16,29.98,6,1,10,0.00
2013-8-3,74.3,64.4,55.0,52.0,48.2,43.0,83,58,33,30.32,30.17,7,1,11,0.00
2013-8-4,76.8,64.0,50.2,55.0,50.4,45.0,84,63,44,30.32,29.98,4,1,8,0.00
2013-8-5,70.9,64.5,60.0,58.0,55.3,53.0,90,73,54,29.99,29.89,5,1,10,0.00
2013-8-6,75.3,63.5,53.9,64.0,57.5,50.0,92,81,64,29.97,29.78,5,1,10,0.30
2013-8-7,73.0,61.6,50.3,54.0,49.7,46.0,87,67,43,30.11,29.97,4,0,4,0.00
2013-8-8,75.1,64.6,55.4,55.0,52.3,47.0,90,67,40,30.12,30.06,3,0,10,0.00
2013-8-9,68.2,60.1,48.4,54.0,49.1,44.0,85,68,52,30.23,30.11,5,1,11,0.00
2013-8-10,72.7,62.0,50.5,55.0,51.6,48.0,91,71,47,30.29,30.14,3,0,5,0.00
2013-8-11,74.6,64.5,56.5,58.0,54.5,52.0,89,72,46,30.18,30.11,6,1,9,0.00
2013-8-12,78.0,64.7,50.9,55.0,50.4,44.0,88,63,38,30.23,30.14,6,1,10,0.00
2013-8-13,75.0,61.2,45.3,51.0,44.1,38.0,84,57,28,30.32,30.23,3,0,10,0.00
2013-8-14,75.7,61.9,44.4,51.0,45.6,41.0,86,60,29,30.26,30.14,2,0,5,0.00
2013-8-15,78.9,67.6,56.9,62.0,55.8,48.0,82,67,42,30.16,30.12,3,0,6,0.00
2013-8-16,79.6,70.0,59.2,60.0,55.5,51.0,87,62,37,30.19,30.13,4,1,8,0.00
2013-8-17,82.9,71.1,57.5,65.0,60.4,54.0,90,70,53,30.15,30.00,6,1,8,0.00
2013-8-18,83.7,73.9,63.9,68.0,64.0,59.0,84,72,57,30.04,29.89,6,2,11,0.00
2013-8-19,89.7,78.3,64.8,71.0,67.6,62.0,92,71,49,29.95,29.84,3,1,5,0.00
2013-8-20,94.9,81.8,69.8,73.0,69.6,66.0,89,69,41,29.84,29.74,6,2,10,0.00
2013-8-21,82.4,72.4,59.4,71.0,55.3,46.0,85,58,29,30.14,29.79,8,2,11,0.00
2013-8-22,78.8,68.7,58.7,51.0,46.9,41.0,71,48,27,30.27,30.14,3,1,7,0.00
2013-8-23,85.2,70.6,51.9,68.0,56.4,46.0,86,63,40,30.19,29.95,5,1,11,0.00
2013-8-24,92.6,82.0,72.2,73.0,69.5,67.0,85,67,45,29.95,29.75,8,2,12,0.00
2013-8-25,91.9,81.0,66.6,77.0,71.7,64.0,93,75,56,29.96,29.81,4,0,25,0.41
2013-8-26,88.6,78.1,68.5,76.0,70.0,61.0,92,77,51,29.97,29.87,6,0,10,0.00
2013-8-27,89.7,77.0,62.8,71.0,65.9,60.0,91,70,45,29.97,29.86,3,0,5,0.00
2013-8-28,89.6,78.9,72.0,73.0,69.2,66.0,87,73,48,30.02,29.96,2,0,4,0.00
2013-8-29,86.8,76.9,69.5,74.0,69.5,66.0,93,79,58,29.99,29.85,4,1,15,0.18
2013-8-30,84.8,72.8,63.4,66.0,63.6,59.0,93,75,43,30.06,29.89,3,0,4,0.00
2013-8-31,85.4,75.3,63.3,69.0,62.9,54.0,91,67,46,29.92,29.74,6,1,11,0.00
2013-9-1,68.3,60.8,52.3,57.0,52.3,47.0,87,74,53,30.14,29.89,7,1,14,0.00
2013-9-2,71.2,57.3,43.2,52.0,47.0,41.0,93,71,42,30.24,30.09,4,0,6,0.00
2013-9-3,83.7,67.0,50.4,61.0,54.0,46.0,88,66,41,30.09,30.01,5,1,7,0.00
2013-9-4,77.6,64.6,51.3,61.0,48.3,42.0,85,59,28,30.25,30.08,6,1,8,0.00
2013-9-5,86.6,70.8,53.7,65.0,56.3,46.0,83,62,43,30.26,30.04,4,1,7,0.00
2013-9-6,88.2,77.2,67.5,69.0,66.1,63.0,89,70,48,30.04,29.89,4,0,6,0.00
2013-9-7,85.8,73.3,63.9,67.0,60.9,55.0,91,67,40,30.11,29.92,9,2,12,0.00
2013-9-8,69.0,64.5,59.0,62.0,59.0,55.0,92,83,64,30.11,29.90,5,1,7,1.51
2013-9-9,74.5,67.1,62.6,68.0,64.0,61.0,93,90,81,29.89,29.67,9,0,9,0.49
2013-9-10,75.4,66.5,60.5,61.0,59.7,58.0,94,80,57,30.00,29.86,2,0,9,0.01
2013-9-11,79.0,66.4,57.0,60.0,52.4,44.0,90,65,31,30.24,29.99,12,1,18,0.00
2013-9-12,69.7,59.2,50.0,54.0,48.9,46.0,88,71,45,30.38,30.24,5,0,8,0.00
2013-9-13,74.1,60.5,46.2,53.0,48.6,43.0,92,68,43,30.32,30.03,3,1,7,0.00
2013-9-14,61.0,57.5,53.3,57.0,52.9,47.0,93,84,62,30.04,29.90,4,0,6,1.05
2013-9-15,62.7,54.5,45.1,55.0,47.3,42.0,93,78,48,30.41,30.04,9,1,11,0.00
2013-9-16,66.9,54.7,42.3,51.0,44.8,39.0,93,72,45,30.44,30.19,4,1,9,0.01
2013-9-17,65.6,58.3,51.5,57.0,52.2,45.0,88,80,73,30.20,29.88,5,1,11,0.00
2013-9-18,78.6,66.6,59.0,70.0,62.1,56.0,92,85,71,29.88,29.59,5,1,9,0.00
2013-9-19,72.4,64.5,55.2,63.0,56.6,50.0,93,77,48,29.93,29.64,5,1,13,0.00
2013-9-20,58.8,53.4,48.5,52.0,46.5,41.0,92,78,53,30.08,29.94,4,1,13,0.08
2013-9-21,61.1,51.1,41.6,45.0,42.5,39.0,92,74,51,30.13,29.96,2,0,4,0.00
2013-9-22,78.3,63.1,46.7,56.0,50.3,43.0,88,65,46,29.96,29.67,7,2,12,0.00
2013-9-23,78.2,68.5,61.2,53.0,51.4,50.0,70,56,39,29.86,29.69,10,3,16,0.00
2013-9-24,72.9,62.4,55.2,56.0,52.3,48.0,90,72,42,30.00,29.86,2,0,4,0.00
2013-9-25,76.3,62.9,48.8,57.0,52.3,46.0,93,71,45,29.97,29.79,5,2,12,0.00
2013-9-26,80.8,69.4,62.6,60.0,55.9,51.0,75,63,45,29.83,29.71,9,2,15,0.00
2013-9-27,63.7,54.6,51.1,56.0,49.0,46.0,92,82,71,29.87,29.79,5,1,12,0.06
2013-9-28,59.8,52.2,48.7,50.0,47.2,42.0,93,83,59,29.91,29.71,5,1,10,1.37
2013-9-29,76.4,58.8,45.2,51.0,44.7,40.0,82,62,28,29.92,29.60,4,1,10,0.00
2013-9-30,75.3,63.6,51.0,54.0,49.0,43.0,83,61,32,29.64,29.54,3,0,4,0.00
2013-10-1,69.4,59.4,48.3,53.0,39.1,30.0,78,51,23,30.02,29.57,7,2,15,0.00
2013-10-2,63.9,51.8,42.0,47.0,41.6,35.0,90,69,47,30.09,30.01,9,1,13,0.00
2013-10-3,54.3,49.0,42.4,48.0,43.7,40.0,91,82,72,30.19,30.05,7,1,10,0.00
2013-10-4,50.2,44.9,42.2,43.0,40.3,37.0,91,84,75,30.28,30.05,15,5,24,0.19
2013-10-5,51.4,47.1,45.0,46.0,44.3,43.0,92,90,83,30.05,29.92,15,5,19,0.62
2013-10-6,61.8,48.9,39.9,43.0,40.3,37.0,92,74,45,30.02,29.92,11,2,14,0.38
2013-10-7,64.7,51.0,37.3,44.0,39.1,34.0,90,67,36,30.08,29.88,3,0,5,0.00
2013-10-8,73.0,59.2,50.5,49.0,45.6,40.0,81,63,39,29.88,29.68,8,1,8,0.00
2013-10-9,69.8,55.7,42.5,47.0,42.2,37.0,91,64,32,30.07,29.84,4,1,9,0.00
2013-10-10,72.4,61.2,52.0,55.0,50.4,44.0,84,69,52,30.04,29.76,5,1,10,0.00
2013-10-11,68.1,61.6,52.5,58.0,52.8,47.0,88,73,55,29.77,29.40,9,4,19,0.55
2013-10-12,54.9,48.5,39.5,47.0,41.1,33.0,90,76,49,30.28,29.50,10,3,17,0.21
2013-10-13,58.3,46.1,34.5,42.0,34.7,31.0,88,67,37,30.50,30.29,4,0,6,0.00
2013-10-14,50.1,45.5,42.5,42.0,40.4,38.0,91,83,65,30.48,30.16,9,3,12,1.37
2013-10-15,43.8,42.1,33.8,41.0,38.7,30.0,91,87,79,30.16,30.05,14,5,18,0.52
2013-10-16,59.1,43.0,29.9,41.0,33.9,28.0,92,73,41,30.15,29.92,6,1,9,0.00
2013-10-17,47.2,43.1,33.5,42.0,34.7,27.0,85,73,54,30.08,29.92,14,2,15,0.00
2013-10-18,48.3,37.6,30.3,37.0,31.1,26.0,88,78,48,30.09,29.89,4,1,13,0.09
2013-10-19,43.4,37.0,32.2,35.0,31.6,29.0,91,81,62,29.90,29.82,6,1,11,0.03
2013-10-20,38.6,35.2,32.6,35.0,30.2,21.0,92,82,62,30.10,29.73,8,2,15,0.33
2013-10-21,37.9,33.5,29.6,27.0,23.8,20.0,75,68,60,30.12,30.09,6,2,13,0.00
2013-10-22,39.1,34.6,30.0,29.0,26.0,23.0,83,71,53,30.21,30.12,7,1,10,0.00
2013-10-23,38.0,33.9,30.2,30.0,24.7,21.0,87,70,55,30.30,30.17,9,2,14,0.00
2013-10-24,41.4,36.2,28.5,31.0,29.1,25.0,90,76,61,30.42,30.30,5,1,12,0.00
2013-10-25,59.4,40.9,26.9,40.0,29.8,23.0,85,67,38,30.41,29.88,12,4,20,0.00
2013-10-26,42.6,36.8,31.0,29.0,26.2,24.0,77,66,52,30.30,30.04,10,2,18,0.00
2013-10-27,45.7,38.1,31.7,31.0,27.8,24.0,79,67,50,30.43,29.88,13,3,16,0.00
2013-10-28,35.1,27.6,20.9,24.0,18.1,16.0,82,69,48,30.69,30.44,8,3,12,0.00
2013-10-29,34.8,29.2,22.2,28.0,22.3,16.0,82,75,69,30.62,30.26,3,0,5,0.00
2013-10-30,37.2,35.4,33.1,35.0,32.5,28.0,92,89,79,30.25,29.83,1,0,3,0.01
2013-10-31,44.1,39.2,36.1,38.0,34.9,32.0,92,85,73,29.82,29.55,5,1,7,0.00
2013-11-1,48.1,37.8,28.8,36.0,31.5,26.0,90,79,60,30.05,29.61,8,1,11,0.00
2013-11-2,51.4,38.3,25.9,37.0,30.7,23.0,91,76,45,30.17,30.05,4,1,7,0.00
2013-11-3,53.7,46.3,36.2,35.0,33.0,30.0,84,61,44,30.09,29.74,10,4,20,0.00
2013-11-4,46.0,38.4,25.0,35.0,27.5,19.0,80,66,49,30.21,29.74,11,2,15,0.00
2013-11-5,36.7,29.4,23.8,23.0,19.4,16.0,77,67,54,30.36,30.22,5,1,9,0.00
2013-11-6,37.5,27.0,16.9,27.0,19.9,12.0,84,75,63,30.31,30.21,2,0,4,0.00
2013-11-7,39.5,27.7,19.2,25.0,20.2,14.0,87,74,56,30.38,30.25,3,0,8,0.00
2013-11-8,44.0,34.3,22.7,33.0,27.3,18.0,90,77,43,30.25,29.71,9,2,14,0.08
2013-11-9,39.2,36.7,32.6,34.0,28.3,24.0,88,72,60,30.41,29.75,16,6,24,0.00
2013-11-10,37.5,27.4,16.3,28.0,20.6,9.0,86,76,64,30.52,30.26,11,-8,14,0.00
2013-11-11,17.4,13.1,7.3,9.0,5.0,2.0,79,70,60,30.95,30.52,11,2,14,0.00
2013-11-12,35.8,21.6,7.2,16.0,9.1,2.0,79,60,36,30.94,30.37,8,4,13,0.00
2013-11-13,58.8,37.2,23.0,36.0,26.3,16.0,85,67,38,30.36,29.94,8,3,13,0.00
2013-11-14,44.1,37.2,27.6,35.0,30.9,24.0,88,78,70,29.95,29.87,5,1,11,0.00
2013-11-15,49.1,35.8,20.5,38.0,30.4,18.0,91,81,59,29.90,29.52,8,1,13,0.09
2013-11-16,44.3,38.3,31.6,39.0,34.7,29.0,91,87,80,29.51,29.38,7,1,10,0.18
2013-11-17,36.9,31.3,25.3,35.0,26.9,19.0,91,84,76,30.08,29.45,17,6,20,0.02
2013-11-18,30.4,25.2,22.7,21.0,18.4,16.0,84,76,63,30.34,30.09,10,2,16,0.00
2013-11-19,45.4,35.9,22.9,35.0,27.3,19.0,84,72,61,30.28,29.70,8,4,15,0.00
2013-11-20,43.4,28.7,17.6,34.0,22.9,12.0,86,79,69,30.33,29.73,11,3,21,0.00
2013-11-21,17.5,11.7,4.3,12.0,5.7,-1.0,83,77,70,30.82,30.34,16,4,20,0.00
2013-11-22,19.1,9.4,-0.6,14.0,3.1,-6.0,85,75,67,31.02,30.64,8,3,15,0.00
2013-11-23,9.6,1.3,-7.3,1.0,-4.5,-12.0,81,76,67,31.14,30.79,5,1,9,0.00
2013-11-24,40.3,24.0,6.7,28.0,14.7,1.0,77,69,54,30.78,29.95,11,4,19,0.00
2013-11-25,34.7,29.1,20.9,27.0,22.3,11.0,83,76,63,30.34,29.96,16,4,23,0.00
2013-11-26,20.5,14.0,4.9,12.0,6.8,1.0,85,73,65,30.63,30.35,16,4,20,0.00
2013-11-27,23.6,14.5,1.6,11.0,6.6,-3.0,85,72,53,30.60,30.15,9,1,16,0.00
2013-11-28,21.6,15.3,5.9,15.0,8.1,2.0,85,73,61,30.64,30.29,10,3,16,0.00
2013-11-29,34.0,22.4,6.2,19.0,13.5,2.0,86,70,54,30.63,30.14,11,2,20,0.00
2013-11-30,25.5,22.9,19.0,20.0,18.3,15.0,87,82,74,30.39,30.16,7,1,9,0.00
2013-12-1,26.3,21.2,17.9,23.0,17.8,15.0,89,86,80,30.39,29.97,5,2,6,0.00
2013-12-2,28.9,27.1,24.8,27.0,24.5,22.0,91,89,85,29.96,29.73,9,3,12,0.00
2013-12-3,24.7,21.5,18.9,22.0,18.2,15.0,90,87,83,30.03,29.83,11,4,15,0.00
2013-12-4,26.1,16.5,6.0,24.0,13.5,3.0,91,87,85,30.00,29.84,14,5,21,0.00
2013-12-5,5.9,-1.2,-6.3,2.0,-6.5,-12.0,85,78,74,30.54,29.97,16,5,19,0.00
2013-12-6,-5.5,-9.7,-14.9,-11.0,-16.2,-21.0,77,73,68,30.86,30.54,4,2,10,0.00
2013-12-7,-8.1,-13.9,-17.8,-16.0,-20.6,-24.0,78,72,66,30.88,30.73,4,2,8,0.00
2013-12-8,4.7,-4.3,-17.9,-1.0,-9.4,-23.0,83,78,74,30.72,30.25,6,1,7,0.00
2013-12-9,1.4,-5.6,-13.0,-3.0,-11.9,-19.0,82,74,67,30.30,29.97,5,2,12,0.00
2013-12-10,5.9,-4.4,-12.0,0.0,-9.8,-18.0,81,78,74,30.60,30.03,6,1,10,0.00
2013-12-11,-0.8,-9.2,-17.2,-6.0,-15.6,-23.0,82,73,66,30.73,30.41,7,2,9,0.00
2013-12-12,13.3,4.3,-3.6,5.0,-1.6,-8.0,82,77,68,30.46,30.38,7,2,13,0.00
2013-12-13,2.2,-1.7,-3.0,-4.0,-7.9,-10.0,80,75,71,30.58,30.42,12,6,15,0.00
2013-12-14,0.7,-3.2,-11.4,-5.0,-8.6,-17.0,81,78,73,30.56,30.39,4,1,8,0.00
2013-12-15,3.3,-6.2,-11.1,-2.0,-12.3,-17.0,80,75,70,30.44,30.20,4,1,8,0.00
2013-12-16,31.9,18.5,3.4,27.0,13.2,-2.0,84,80,72,30.21,30.00,10,4,17,0.00
2013-12-17,29.6,13.2,0.4,25.0,7.6,-4.0,83,78,71,30.27,30.03,15,3,20,0.00
2013-12-18,27.8,16.7,1.1,21.0,11.0,-5.0,84,78,73,30.21,29.76,10,3,16,0.00
2013-12-19,0.6,-3.3,-6.5,-5.0,-8.8,-12.0,81,77,74,30.45,30.22,8,3,15,0.00
2013-12-20,6.2,-2.7,-11.6,0.0,-7.5,-16.0,83,80,76,30.40,30.06,4,0,6,0.00
2013-12-21,1.0,-5.8,-10.6,-3.0,-10.7,-15.0,83,79,76,30.39,30.06,8,2,11,0.00
2013-12-22,-4.5,-7.9,-12.3,-10.0,-13.9,-19.0,78,75,70,30.68,30.36,7,3,11,0.00
2013-12-23,-9.3,-15.0,-18.9,-18.0,-22.0,-26.0,77,70,64,30.85,30.64,6,1,13,0.00
2013-12-24,16.0,1.5,-18.3,12.0,-3.9,-24.0,84,78,70,30.64,30.20,8,3,16,0.00
2013-12-25,22.7,15.8,11.7,19.0,10.4,6.0,87,79,70,30.35,30.15,8,2,14,0.00
2013-12-26,24.9,18.2,12.7,22.0,14.3,9.0,88,84,80,30.27,30.19,4,1,7,0.00
2013-12-27,38.8,31.4,23.8,32.0,27.1,20.0,89,84,76,30.19,29.96,13,3,16,0.18
2013-12-28,33.1,13.5,-14.2,30.0,10.0,-20.0,91,85,76,30.61,29.82,17,4,28,0.00
2013-12-29,-6.7,-12.0,-16.2,-15.0,-18.3,-22.0,76,73,66,30.69,30.42,11,1,16,0.00
2013-12-30,0.4,-8.1,-19.3,-5.0,-13.4,-25.0,80,77,75,30.51,30.36,5,1,9,0.00
2013-12-31,-16.2,-18.1,-20.1,-22.0,-24.1,-26.0,77,74,69,30.72,30.46,5,1,7,0.00
2014-1-1,-6.8,-13.5,-20.1,-14.0,-19.6,-25.0,77,74,72,30.77,30.69,4,0,5,0.00
2014-1-2,-7.2,-16.6,-26.2,-13.0,-22.1,-32.0,79,76,71,30.78,30.36,4,1,12,0.00